createdAt,value
2023-09-20T00:01:28.674Z,17.21
2023-09-20T00:03:55.315Z,17.22
2023-09-20T00:06:21.783Z,17.18
2023-09-20T00:08:48.728Z,17.13
2023-09-20T00:11:16.583Z,17.11
2023-09-20T00:13:43.396Z,17.12
2023-09-20T00:16:10.919Z,17.11
2023-09-20T00:18:38.423Z,17.12
2023-09-20T00:21:05.134Z,17.11
2023-09-20T00:23:32.124Z,17.07
2023-09-20T00:25:58.918Z,17.05
2023-09-20T00:28:25.440Z,16.99
2023-09-20T00:30:53.555Z,16.98
2023-09-20T00:33:20.215Z,16.97
2023-09-20T00:35:46.713Z,16.92
2023-09-20T00:38:17.288Z,16.91
2023-09-20T00:40:44.607Z,16.88
2023-09-20T00:43:14.289Z,16.80
2023-09-20T00:45:41.724Z,16.77
2023-09-20T00:48:10.718Z,16.70
2023-09-20T00:50:37.461Z,16.70
2023-09-20T00:53:08.772Z,16.63
2023-09-20T00:55:37.782Z,16.51
2023-09-20T00:58:15.868Z,16.41
2023-09-20T01:00:44.547Z,16.36
2023-09-20T01:03:13.125Z,16.26
2023-09-20T01:05:40.838Z,16.23
2023-09-20T01:08:07.798Z,16.29
2023-09-20T01:10:37.663Z,16.32
2023-09-20T01:13:06.450Z,16.34
2023-09-20T01:15:34.633Z,16.29
2023-09-20T01:18:02.530Z,16.25
2023-09-20T01:20:30.607Z,16.22
2023-09-20T01:22:58.724Z,16.17
2023-09-20T01:25:33.579Z,16.19
2023-09-20T01:28:01.716Z,16.13
2023-09-20T01:30:29.853Z,16.09
2023-09-20T01:33:08.368Z,16.00
2023-09-20T01:35:36.731Z,15.99
2023-09-20T01:38:07.851Z,16.01
2023-09-20T01:40:35.605Z,15.99
2023-09-20T01:43:05.199Z,15.92
2023-09-20T01:45:33.504Z,15.88
2023-09-20T01:48:06.086Z,15.87
2023-09-20T01:50:32.874Z,15.85
2023-09-20T01:53:00.725Z,15.87
2023-09-20T01:55:29.301Z,15.85
2023-09-20T01:57:58.092Z,15.81
2023-09-20T02:00:38.335Z,15.83
2023-09-20T02:03:11.611Z,15.79
2023-09-20T02:05:38.698Z,15.74
2023-09-20T02:08:06.080Z,15.78
2023-09-20T02:10:32.747Z,15.85
2023-09-20T02:13:00.306Z,15.99
2023-09-20T02:15:29.387Z,16.09
2023-09-20T02:17:55.852Z,16.17
2023-09-20T02:20:24.843Z,16.21
2023-09-20T02:22:56.615Z,16.24
2023-09-20T02:25:23.725Z,16.31
2023-09-20T02:27:51.747Z,16.39
2023-09-20T02:30:25.948Z,16.44
2023-09-20T02:32:58.838Z,16.44
2023-09-20T02:35:29.573Z,16.51
2023-09-20T02:37:57.666Z,16.55
2023-09-20T02:40:28.671Z,16.57
2023-09-20T02:42:59.775Z,16.59
2023-09-20T02:45:33.854Z,16.52
2023-09-20T02:48:04.044Z,16.48
2023-09-20T02:50:30.715Z,16.45
2023-09-20T02:52:57.790Z,16.36
2023-09-20T02:55:25.008Z,16.31
2023-09-20T02:57:55.961Z,16.28
2023-09-20T03:00:28.816Z,16.26
2023-09-20T03:02:58.906Z,16.19
2023-09-20T03:05:30.702Z,16.08
2023-09-20T03:07:57.407Z,16.04
2023-09-20T03:10:24.864Z,16.03
2023-09-20T03:12:53.118Z,16.02
2023-09-20T03:15:25.316Z,15.99
2023-09-20T03:18:07.548Z,16.02
2023-09-20T03:20:34.352Z,15.98
2023-09-20T03:23:04.268Z,15.93
2023-09-20T03:25:37.630Z,15.89
2023-09-20T03:28:06.134Z,15.85
2023-09-20T03:30:35.484Z,15.81
2023-09-20T03:33:02.039Z,15.75
2023-09-20T03:35:29.221Z,15.73
2023-09-20T03:37:55.721Z,15.76
2023-09-20T03:40:23.994Z,15.78
2023-09-20T03:42:53.235Z,15.81
2023-09-20T03:45:21.828Z,15.85
2023-09-20T03:48:02.470Z,15.86
2023-09-20T03:50:29.262Z,15.82
2023-09-20T03:52:55.870Z,15.77
2023-09-20T03:55:24.181Z,15.73
2023-09-20T03:57:50.742Z,15.70
2023-09-20T04:00:29.313Z,15.73
2023-09-20T04:02:57.319Z,15.67
2023-09-20T04:05:43.424Z,15.72
2023-09-20T04:08:12.611Z,15.74
2023-09-20T04:10:41.274Z,15.84
2023-09-20T04:13:07.770Z,15.87
2023-09-20T04:15:34.580Z,15.90
2023-09-20T04:18:09.353Z,15.95
2023-09-20T04:20:36.506Z,15.96
2023-09-20T04:23:03.795Z,15.93
2023-09-20T04:25:30.436Z,15.95
2023-09-20T04:27:56.878Z,16.06
2023-09-20T04:30:24.644Z,16.03
2023-09-20T04:32:53.109Z,16.12
2023-09-20T04:35:19.744Z,16.10
2023-09-20T04:37:47.072Z,16.14
2023-09-20T04:40:14.617Z,16.15
2023-09-20T04:42:41.063Z,16.11
2023-09-20T04:45:08.414Z,16.10
2023-09-20T04:47:38.043Z,16.14
2023-09-20T04:50:04.850Z,16.17
2023-09-20T04:52:31.494Z,16.19
2023-09-20T04:54:57.986Z,16.28
2023-09-20T04:57:24.519Z,16.34
2023-09-20T04:59:51.244Z,16.41
2023-09-20T05:02:17.956Z,16.38
2023-09-20T05:04:44.651Z,16.41
2023-09-20T05:07:11.263Z,16.43
2023-09-20T05:09:38.239Z,16.43
2023-09-20T05:12:05.408Z,16.40
2023-09-20T05:14:32.466Z,16.37
2023-09-20T05:16:58.986Z,16.41
2023-09-20T05:19:25.448Z,16.41
2023-09-20T05:21:51.982Z,16.36
2023-09-20T05:24:18.407Z,16.32
2023-09-20T05:26:45.169Z,16.33
2023-09-20T05:29:11.738Z,16.31
2023-09-20T05:31:38.258Z,16.29
2023-09-20T05:34:06.381Z,16.28
2023-09-20T05:36:33.799Z,16.22
2023-09-20T05:39:00.289Z,16.21
2023-09-20T05:41:28.181Z,16.16
2023-09-20T05:43:54.792Z,16.08
2023-09-20T05:46:21.274Z,16.03
2023-09-20T05:48:50.097Z,16.04
2023-09-20T05:51:18.419Z,16.07
2023-09-20T05:53:44.941Z,16.11
2023-09-20T05:56:15.948Z,16.15
2023-09-20T05:58:42.597Z,16.17
2023-09-20T06:01:10.392Z,16.20
2023-09-20T06:03:37.782Z,16.19
2023-09-20T06:06:08.379Z,16.18
2023-09-20T06:08:36.621Z,16.21
2023-09-20T06:11:06.074Z,16.21
2023-09-20T06:13:34.634Z,16.24
2023-09-20T06:16:06.293Z,16.29
2023-09-20T06:18:33.332Z,16.34
2023-09-20T06:21:01.835Z,16.39
2023-09-20T06:23:28.413Z,16.42
2023-09-20T06:25:55.107Z,16.49
2023-09-20T06:28:21.807Z,16.53
2023-09-20T06:30:48.914Z,16.56
2023-09-20T06:33:15.789Z,16.64
2023-09-20T06:35:44.537Z,16.68
2023-09-20T06:38:11.610Z,16.75
2023-09-20T06:40:41.273Z,16.77
2023-09-20T06:43:08.896Z,16.79
2023-09-20T06:45:36.647Z,16.87
2023-09-20T06:48:03.958Z,16.94
2023-09-20T06:50:31.724Z,17.06
2023-09-20T06:52:58.976Z,17.17
2023-09-20T06:55:26.420Z,17.30
2023-09-20T06:58:01.817Z,17.38
2023-09-20T07:00:39.825Z,17.48
2023-09-20T07:03:06.614Z,17.43
2023-09-20T07:05:33.280Z,17.40
2023-09-20T07:08:00.350Z,17.31
2023-09-20T07:10:29.505Z,17.26
2023-09-20T07:12:56.176Z,17.18
2023-09-20T07:15:26.124Z,17.12
2023-09-20T07:17:59.843Z,17.12
2023-09-20T07:20:27.346Z,17.11
2023-09-20T07:22:54.317Z,17.12
2023-09-20T07:25:22.382Z,17.12
2023-09-20T07:27:50.536Z,17.12
2023-09-20T07:30:21.187Z,17.08
2023-09-20T07:33:04.800Z,17.08
2023-09-20T07:35:39.653Z,17.11
2023-09-20T07:38:18.782Z,17.11
2023-09-20T07:40:50.388Z,17.17
2023-09-20T07:43:28.962Z,17.18
2023-09-20T07:45:56.783Z,17.18
2023-09-20T07:48:23.659Z,17.18
2023-09-20T07:50:50.988Z,17.15
2023-09-20T07:53:19.657Z,17.17
2023-09-20T07:56:07.392Z,17.22
2023-09-20T07:58:37.157Z,17.26
2023-09-20T08:01:17.207Z,17.31
2023-09-20T08:03:52.190Z,17.39
2023-09-20T08:06:25.215Z,17.50
2023-09-20T08:08:51.882Z,17.66
2023-09-20T08:11:21.128Z,17.83
2023-09-20T08:13:49.583Z,18.02
2023-09-20T08:16:17.047Z,18.29
2023-09-20T08:19:02.526Z,18.55
2023-09-20T08:21:30.690Z,18.88
2023-09-20T08:24:15.818Z,19.01
2023-09-20T08:27:00.721Z,19.05
2023-09-20T08:29:45.752Z,18.87
2023-09-20T08:32:31.113Z,18.44
2023-09-20T08:35:16.743Z,18.22
2023-09-20T08:38:01.712Z,18.20
2023-09-20T08:40:46.925Z,18.28
2023-09-20T08:43:33.283Z,18.28
2023-09-20T08:46:23.482Z,18.29
2023-09-20T08:49:10.119Z,18.47
2023-09-20T08:52:23.130Z,18.64
2023-09-20T08:55:09.107Z,18.76
2023-09-20T08:57:55.042Z,18.75
2023-09-20T09:00:23.759Z,18.74
2023-09-20T09:02:53.921Z,18.59
2023-09-20T09:05:22.774Z,18.50
2023-09-20T09:07:49.562Z,18.40
2023-09-20T09:10:16.578Z,18.29
2023-09-20T09:12:43.673Z,18.23
2023-09-20T09:15:11.527Z,18.14
2023-09-20T09:17:42.858Z,18.14
2023-09-20T09:20:12.570Z,18.16
2023-09-20T09:22:39.879Z,18.23
2023-09-20T09:25:13.744Z,18.33
2023-09-20T09:27:41.727Z,18.35
2023-09-20T09:30:13.773Z,18.36
2023-09-20T09:32:41.481Z,18.34
2023-09-20T09:35:08.831Z,18.31
2023-09-20T09:37:37.315Z,18.24
2023-09-20T09:40:06.280Z,18.25
2023-09-20T09:42:33.773Z,18.19
2023-09-20T09:45:02.581Z,18.16
2023-09-20T09:47:31.579Z,18.12
2023-09-20T09:50:01.361Z,18.09
2023-09-20T09:52:29.732Z,18.12
2023-09-20T09:54:56.668Z,18.21
2023-09-20T09:57:24.342Z,18.35
2023-09-20T09:59:52.431Z,18.65
2023-09-20T10:02:23.094Z,19.60
2023-09-20T10:05:03.209Z,20.71
2023-09-20T10:07:36.587Z,21.10
2023-09-20T10:10:09.951Z,20.51
2023-09-20T10:12:39.636Z,20.07
2023-09-20T10:15:08.091Z,19.84
2023-09-20T10:17:53.907Z,20.07
2023-09-20T10:20:20.657Z,20.15
2023-09-20T10:22:52.537Z,20.12
2023-09-20T10:25:38.286Z,19.92
2023-09-20T10:28:10.254Z,19.71
2023-09-20T10:31:03.282Z,19.67
2023-09-20T10:33:42.640Z,19.64
2023-09-20T10:36:12.413Z,19.64
2023-09-20T10:38:41.555Z,19.75
2023-09-20T10:41:11.944Z,19.71
2023-09-20T10:43:38.379Z,19.63
2023-09-20T10:46:13.637Z,19.52
2023-09-20T10:48:53.482Z,19.50
2023-09-20T10:51:54.154Z,19.50
2023-09-20T10:54:23.746Z,19.53
2023-09-20T10:56:53.491Z,19.43
2023-09-20T10:59:22.658Z,19.49
2023-09-20T11:02:18.642Z,19.58
2023-09-20T11:04:48.363Z,19.69
2023-09-20T11:07:15.589Z,20.34
2023-09-20T11:09:43.921Z,20.46
2023-09-20T11:12:10.670Z,20.32
2023-09-20T11:14:41.648Z,20.69
2023-09-20T11:17:13.078Z,21.90
2023-09-20T11:19:39.735Z,22.71
2023-09-20T11:22:06.776Z,22.66
2023-09-20T11:24:35.409Z,22.92
2023-09-20T11:27:01.802Z,25.57
2023-09-20T11:29:28.343Z,25.58
2023-09-20T11:31:57.516Z,24.14
2023-09-20T11:34:25.251Z,22.67
2023-09-20T11:36:55.072Z,22.38
2023-09-20T11:39:31.250Z,22.35
2023-09-20T11:42:06.544Z,21.82
2023-09-20T11:44:37.104Z,21.46
2023-09-20T11:47:04.420Z,21.25
2023-09-20T11:49:31.123Z,21.16
2023-09-20T11:52:00.453Z,22.56
2023-09-20T11:54:30.006Z,23.68
2023-09-20T11:57:00.594Z,25.62
2023-09-20T11:59:27.232Z,25.17
2023-09-20T12:01:53.676Z,26.52
2023-09-20T12:04:20.220Z,27.78
2023-09-20T12:06:46.824Z,28.06
2023-09-20T12:09:14.205Z,26.92
2023-09-20T12:11:42.197Z,24.39
2023-09-20T12:14:13.749Z,24.10
2023-09-20T12:16:40.493Z,26.03
2023-09-20T12:19:07.067Z,25.79
2023-09-20T12:21:33.833Z,24.35
2023-09-20T12:24:00.549Z,23.63
2023-09-20T12:26:27.043Z,25.29
2023-09-20T12:28:53.506Z,23.96
2023-09-20T12:31:24.751Z,22.86
2023-09-20T12:33:53.863Z,22.79
2023-09-20T12:36:25.024Z,23.03
2023-09-20T12:38:51.950Z,23.02
2023-09-20T12:41:18.609Z,22.90
2023-09-20T12:43:45.569Z,22.47
2023-09-20T12:46:12.122Z,22.09
2023-09-20T12:48:38.729Z,22.11
2023-09-20T12:51:09.122Z,22.10
2023-09-20T12:53:35.805Z,22.02
2023-09-20T12:56:05.427Z,22.01
2023-09-20T12:58:32.706Z,22.05
2023-09-20T13:00:59.182Z,21.87
2023-09-20T13:03:30.039Z,21.74
2023-09-20T13:05:56.757Z,21.73
2023-09-20T13:08:26.448Z,21.96
2023-09-20T13:10:54.202Z,22.19
2023-09-20T13:13:26.113Z,22.29
2023-09-20T13:15:53.748Z,22.27
2023-09-20T13:18:20.320Z,22.06
2023-09-20T13:20:47.283Z,22.08
2023-09-20T13:23:15.393Z,21.98
2023-09-20T13:25:45.068Z,21.83
2023-09-20T13:28:13.349Z,21.81
2023-09-20T13:30:41.804Z,21.88
2023-09-20T13:33:12.029Z,21.79
2023-09-20T13:35:40.440Z,21.68
2023-09-20T13:38:07.123Z,21.69
2023-09-20T13:40:34.730Z,21.73
2023-09-20T13:43:01.636Z,21.77
2023-09-20T13:45:28.246Z,21.76
2023-09-20T13:47:55.296Z,21.78
2023-09-20T13:50:22.812Z,21.88
2023-09-20T13:52:49.490Z,21.85
2023-09-20T13:55:21.084Z,21.62
2023-09-20T13:57:55.281Z,21.70
2023-09-20T14:00:22.041Z,21.61
2023-09-20T14:02:48.999Z,21.43
2023-09-20T14:05:17.083Z,21.45
2023-09-20T14:07:56.756Z,21.50
2023-09-20T14:10:25.322Z,21.45
2023-09-20T14:12:52.336Z,21.40
2023-09-20T14:15:23.042Z,21.47
2023-09-20T14:17:54.002Z,21.52
2023-09-20T14:20:22.326Z,21.57
2023-09-20T14:22:51.212Z,21.50
2023-09-20T14:25:18.522Z,21.57
2023-09-20T14:27:46.069Z,21.53
2023-09-20T14:30:16.572Z,21.34
2023-09-20T14:32:45.356Z,21.24
2023-09-20T14:35:16.329Z,21.15
2023-09-20T14:37:46.193Z,21.00
2023-09-20T14:40:23.603Z,20.77
2023-09-20T14:42:52.892Z,20.64
2023-09-20T14:45:25.693Z,20.55
2023-09-20T14:47:53.799Z,20.56
2023-09-20T14:50:21.690Z,20.65
2023-09-20T14:52:49.291Z,20.65
2023-09-20T14:55:19.575Z,20.59
2023-09-20T14:57:48.440Z,20.49
2023-09-20T15:00:19.433Z,20.46
2023-09-20T15:02:50.780Z,20.44
2023-09-20T15:05:20.720Z,20.38
2023-09-20T15:07:49.984Z,20.32
2023-09-20T15:10:17.965Z,20.32
2023-09-20T15:12:49.261Z,20.31
2023-09-20T15:15:16.437Z,20.23
2023-09-20T15:17:44.601Z,20.18
2023-09-20T15:20:12.119Z,20.08
2023-09-20T15:22:38.699Z,20.00
2023-09-20T15:25:05.624Z,19.90
2023-09-20T15:27:32.421Z,19.83
2023-09-20T15:30:00.177Z,19.80
2023-09-20T15:32:27.362Z,19.78
2023-09-20T15:34:55.203Z,19.77
2023-09-20T15:37:25.171Z,19.74
2023-09-20T15:39:51.913Z,19.76
2023-09-20T15:42:18.432Z,19.77
2023-09-20T15:44:50.713Z,19.80
2023-09-20T15:47:21.485Z,19.79
2023-09-20T15:49:47.962Z,19.80
2023-09-20T15:52:15.897Z,19.79
2023-09-20T15:54:42.833Z,19.80
2023-09-20T15:57:11.959Z,19.77
2023-09-20T15:59:40.323Z,19.75
2023-09-20T16:02:07.712Z,19.72
2023-09-20T16:04:35.112Z,19.66
2023-09-20T16:07:03.985Z,19.62
2023-09-20T16:09:30.621Z,19.66
2023-09-20T16:11:57.223Z,19.76
2023-09-20T16:14:24.444Z,19.88
2023-09-20T16:16:51.024Z,19.93
2023-09-20T16:19:17.497Z,19.99
2023-09-20T16:21:44.175Z,20.05
2023-09-20T16:24:10.813Z,20.12
2023-09-20T16:26:38.732Z,20.10
2023-09-20T16:29:05.300Z,20.06
2023-09-20T16:31:32.567Z,20.04
2023-09-20T16:33:59.230Z,20.00
2023-09-20T16:36:25.751Z,19.99
2023-09-20T16:38:52.762Z,19.89
2023-09-20T16:41:22.019Z,19.79
2023-09-20T16:43:48.510Z,19.70
2023-09-20T16:46:15.417Z,19.62
2023-09-20T16:48:42.000Z,19.56
2023-09-20T16:51:08.791Z,19.51
2023-09-20T16:53:35.527Z,19.54
2023-09-20T16:56:03.408Z,19.54
2023-09-20T16:58:29.832Z,19.50
2023-09-20T17:00:56.293Z,19.44
2023-09-20T17:03:22.831Z,19.39
2023-09-20T17:05:49.485Z,19.29
2023-09-20T17:08:15.966Z,19.26
2023-09-20T17:10:42.356Z,19.12
2023-09-20T17:13:08.788Z,19.06
2023-09-20T17:15:35.243Z,19.04
2023-09-20T17:18:01.967Z,18.95
2023-09-20T17:20:29.404Z,18.91
2023-09-20T17:22:55.970Z,18.92
2023-09-20T17:25:22.835Z,18.84
2023-09-20T17:27:49.422Z,18.81
2023-09-20T17:30:20.419Z,18.77
2023-09-20T17:32:49.537Z,18.74
2023-09-20T17:35:17.288Z,18.71
2023-09-20T17:37:44.264Z,18.70
2023-09-20T17:40:15.490Z,18.64
2023-09-20T17:42:42.000Z,18.57
2023-09-20T17:45:08.866Z,18.53
2023-09-20T17:47:40.819Z,18.56
2023-09-20T17:50:08.274Z,18.49
2023-09-20T17:52:34.916Z,18.46
2023-09-20T17:55:01.485Z,18.46
2023-09-20T17:57:27.958Z,18.33
2023-09-20T17:59:54.428Z,18.27
2023-09-20T18:02:21.480Z,18.16
2023-09-20T18:04:48.057Z,18.14
2023-09-20T18:07:14.576Z,18.12
2023-09-20T18:09:41.017Z,18.02
2023-09-20T18:12:07.652Z,17.96
2023-09-20T18:14:34.293Z,17.91
2023-09-20T18:17:01.810Z,17.85
2023-09-20T18:19:28.625Z,17.81
2023-09-20T18:21:55.240Z,17.72
2023-09-20T18:24:21.718Z,17.67
2023-09-20T18:26:49.863Z,17.60
2023-09-20T18:29:17.543Z,17.56
2023-09-20T18:31:44.500Z,17.55
2023-09-20T18:34:10.980Z,17.53
2023-09-20T18:36:37.361Z,17.54
2023-09-20T18:39:04.028Z,17.56
2023-09-20T18:41:31.339Z,17.57
2023-09-20T18:43:59.923Z,17.55
2023-09-20T18:46:27.313Z,17.53
2023-09-20T18:48:54.671Z,17.48
2023-09-20T18:51:21.313Z,17.48
2023-09-20T18:53:48.465Z,17.47
2023-09-20T18:56:16.393Z,17.40
2023-09-20T18:58:43.093Z,17.39
2023-09-20T19:01:18.588Z,17.34
2023-09-20T19:03:49.052Z,17.31
2023-09-20T19:06:20.731Z,17.31
2023-09-20T19:08:53.275Z,17.43
2023-09-20T19:11:21.358Z,17.43
2023-09-20T19:13:47.902Z,17.37
2023-09-20T19:16:15.914Z,17.31
2023-09-20T19:18:43.478Z,17.22
2023-09-20T19:21:11.465Z,17.25
2023-09-20T19:23:38.466Z,17.26
2023-09-20T19:26:05.965Z,17.26
2023-09-20T19:28:32.469Z,17.24
2023-09-20T19:31:00.298Z,17.23
2023-09-20T19:33:29.851Z,17.27
2023-09-20T19:35:57.260Z,17.26
2023-09-20T19:38:23.917Z,17.23
2023-09-20T19:40:52.439Z,17.27
2023-09-20T19:43:18.891Z,17.34
2023-09-20T19:45:45.445Z,17.39
2023-09-20T19:48:11.979Z,17.35
2023-09-20T19:50:38.522Z,17.44
2023-09-20T19:53:05.172Z,17.48
2023-09-20T19:55:31.649Z,17.54
2023-09-20T19:57:59.976Z,17.50
2023-09-20T20:00:28.194Z,17.42
2023-09-20T20:02:59.797Z,17.44
2023-09-20T20:05:27.551Z,17.47
2023-09-20T20:07:59.000Z,17.41
2023-09-20T20:10:26.958Z,17.41
2023-09-20T20:12:57.535Z,17.39
2023-09-20T20:15:25.988Z,17.51
2023-09-20T20:17:55.857Z,17.54
2023-09-20T20:20:28.393Z,17.58
2023-09-20T20:22:56.288Z,17.55
2023-09-20T20:25:30.806Z,17.57
2023-09-20T20:27:59.036Z,17.67
2023-09-20T20:30:31.439Z,17.77
2023-09-20T20:32:58.446Z,17.74
2023-09-20T20:35:27.230Z,17.82
2023-09-20T20:37:55.098Z,17.90
2023-09-20T20:40:22.607Z,18.02
2023-09-20T20:42:50.057Z,18.08
2023-09-20T20:45:18.166Z,18.07
2023-09-20T20:47:46.874Z,18.03
2023-09-20T20:50:15.889Z,18.07
2023-09-20T20:52:50.200Z,18.10
2023-09-20T20:55:24.013Z,18.09
2023-09-20T20:57:51.560Z,18.12
2023-09-20T21:00:25.160Z,18.14
2023-09-20T21:02:53.918Z,18.12
2023-09-20T21:05:25.296Z,18.14
2023-09-20T21:07:53.225Z,18.10
2023-09-20T21:10:22.239Z,18.11
2023-09-20T21:12:50.409Z,18.11
2023-09-20T21:15:22.064Z,18.12
2023-09-20T21:17:54.540Z,18.17
2023-09-20T21:20:28.429Z,18.16
2023-09-20T21:22:56.771Z,18.19
2023-09-20T21:25:27.866Z,18.11
2023-09-20T21:27:55.690Z,18.05
2023-09-20T21:30:32.141Z,17.98
2023-09-20T21:33:01.422Z,17.96
2023-09-20T21:35:29.246Z,17.88
2023-09-20T21:37:56.225Z,17.89
2023-09-20T21:40:23.925Z,17.91
2023-09-20T21:42:51.510Z,17.91
2023-09-20T21:45:19.450Z,17.91
2023-09-20T21:47:47.716Z,17.92
2023-09-20T21:50:15.045Z,17.99
2023-09-20T21:52:41.567Z,17.89
2023-09-20T21:55:09.963Z,17.96
2023-09-20T21:57:38.038Z,17.95
2023-09-20T22:00:22.293Z,17.98
2023-09-20T22:02:50.519Z,18.01
2023-09-20T22:05:18.572Z,17.98
2023-09-20T22:07:45.735Z,18.03
2023-09-20T22:10:17.821Z,18.07
2023-09-20T22:12:47.478Z,18.05
2023-09-20T22:15:18.331Z,18.06
2023-09-20T22:17:45.943Z,18.07
2023-09-20T22:20:15.372Z,18.01
2023-09-20T22:22:42.113Z,17.95
2023-09-20T22:25:11.582Z,17.91
2023-09-20T22:27:39.169Z,17.96
2023-09-20T22:30:07.568Z,17.95
2023-09-20T22:32:34.457Z,18.01
2023-09-20T22:35:02.223Z,18.06
2023-09-20T22:37:29.193Z,18.05
2023-09-20T22:39:58.932Z,18.09
2023-09-20T22:42:28.627Z,18.12
2023-09-20T22:44:55.178Z,18.09
2023-09-20T22:47:21.910Z,18.16
2023-09-20T22:49:51.788Z,18.17
2023-09-20T22:52:21.422Z,18.23
2023-09-20T22:54:49.735Z,18.28
2023-09-20T22:57:23.560Z,18.27
2023-09-20T22:59:51.382Z,18.29
2023-09-20T23:02:21.308Z,18.24
2023-09-20T23:04:50.739Z,18.22
2023-09-20T23:07:18.031Z,18.24
2023-09-20T23:09:45.027Z,18.21
2023-09-20T23:12:16.954Z,18.18
2023-09-20T23:14:43.676Z,18.19
2023-09-20T23:17:10.939Z,18.21
2023-09-20T23:19:40.033Z,18.19
2023-09-20T23:22:07.179Z,18.25
2023-09-20T23:24:36.220Z,18.29
2023-09-20T23:27:06.250Z,18.33
2023-09-20T23:29:35.010Z,18.32
2023-09-20T23:32:04.136Z,18.42
2023-09-20T23:34:30.692Z,18.53
2023-09-20T23:36:57.266Z,18.61
2023-09-20T23:39:30.901Z,18.67
2023-09-20T23:41:57.514Z,18.68
2023-09-20T23:44:24.050Z,18.61
2023-09-20T23:46:50.663Z,18.57
2023-09-20T23:49:25.082Z,18.57
2023-09-20T23:51:51.882Z,18.58
2023-09-20T23:54:18.502Z,18.63
2023-09-20T23:56:47.305Z,18.57
2023-09-20T23:59:14.808Z,18.55
